FQMA/MPM METAR and TAF weather

Enter ICAO airport designator
Station Type Date Time Source
FQMA METAR 2018/04/21 11:00 UTC NOAA

FQMA 211100Z 04003KT 9999 BKN020 25/20 Q1016 NOSIG


Station Type Date Time Source
FQMA Decoded METAR 2018/04/21 11:00 UTC NOAA

Maputo / Mavalane, Mozambique (FQMA) 25-55S 032-34E 44M
Apr 21, 2018 - 07:00 AM EDT / 2018.04.21 1100 UTC
Wind: from the NE (040 degrees) at 3 MPH (3 KT):0
Visibility: greater than 7 mile(s):0
Sky conditions: mostly cloudy
Temperature: 77 F (25 C)
Dew Point: 68 F (20 C)
Relative Humidity: 73%
Pressure (altimeter): 30.00 in. Hg (1016 hPa)
ob: FQMA 211100Z 04003KT 9999 BKN020 25/20 Q1016 NOSIG
cycle: 11

Station Type Date Time Source
FQMA TAF 2018/04/21 06:15 UTC NOAA

TAF FQMA 210400Z 2106/2212 23008KT 9999 BKN020
BECMG 2112/2114 15012KT
BECMG 2120/2122 22008KT TX29/2113Z TN25/2203Z


Example: see airport list